CheckWX is a tool to help pilots better visualize weather data.  It is not intended as a substitute for an official pre-flight weather briefing.

03:55:26 UTC

KSWO METAR
Stillwater Regional Airport
Stillwater, Oklahoma, USA
Current

9 mins ago

KSWO 260346Z AUTO 02012G18KT 2SM VCTS +RA BR BKN026 BKN037 OVC070 19/17 A3003 RMK AO2 LTG DSNT ALQDS TSE07B18E43 P0080 T01890172
Observed
May-26 @ 03:46 UTC
Wind
  • 020° at 12 KTS
  • Gusting to 18 KTS
Visibility
2 SM
Flight Rules
IFR
Conditions
Area Thunderstorm, Heavy Rain, Mist
Cloud Levels
  • Broken at 2,600' AGL
  • Broken at 3,700' AGL
  • Overcast at 7,000' AGL
Temperature
19°C / 66°F
Dewpoint
17°C / 63°F
Humidity
88%
Altimeter
30.03" Hg
Pressure
1016.92 hPa
Current Rain
0.8"
Previous

28 mins ago

KSWO 260327Z AUTO 01013G16KT 1 3/4SM +TSRA BR FEW012 SCT020 OVC035 19/17 A3004 RMK AO2 LTG DSNT ALQDS TSE07B18 P0038 T01940172
Observed
May-26 @ 03:27 UTC
Wind
  • 010° at 13 KTS
  • Gusting to 16 KTS
Visibility
1 3/4 SM
Flight Rules
IFR
Conditions
Heavy Thunderstorm, Heavy Rain, Mist
Cloud Levels
  • Few at 1,200' AGL
  • Scattered at 2,000' AGL
  • Overcast at 3,500' AGL
Temperature
19°C / 66°F
Dewpoint
17°C / 63°F
Humidity
88%
Altimeter
30.04" Hg
Pressure
1017.32 hPa
Current Rain
0.38"
Previous

37 mins ago

KSWO 260318Z AUTO 34011G18KT 3SM +TSRA BR FEW011 SCT024 OVC033 19/17 A3004 RMK AO2 LTG DSNT ALQDS TSE07B18 P0015 T01940172
Observed
May-26 @ 03:18 UTC
Wind
  • 340° at 11 KTS
  • Gusting to 18 KTS
Visibility
3 SM
Flight Rules
MVFR
Conditions
Heavy Thunderstorm, Heavy Rain, Mist
Cloud Levels
  • Few at 1,100' AGL
  • Scattered at 2,400' AGL
  • Overcast at 3,300' AGL
Temperature
19°C / 66°F
Dewpoint
17°C / 63°F
Humidity
88%
Altimeter
30.04" Hg
Pressure
1017.32 hPa
Current Rain
0.15"